Midland, Texas
Current Conditions -  °F | °C
As of 8:35 PM on Wednesday 26 Nov 2014 (Local Time) from KMDD Reporting Station
Clear Clear  
Wind Chill:   Ceiling: Unl
Heat Index:   Visibility: 10mi
Dew Point:   Wind: 5mph
Humidity: 55%   Direction: 80°E
Pressure: 30.33"   Gusts: NA
Location:  32°N, 102.07°W
Report Text: KMDD 270235Z AUTO 08004KT 10SM CLR 09/01 A3033 RMK AO2 T00920006
Loading
Personal Weather Stations






























Interactive Weather Map New forecast layout! Learn more

10-Day Weather Forecast

Advertisements
Track Severe Weather on mobile